Latest Weather Observations for Parkes Airport

IDN60801

Issued at 5:02 pm EDT Thursday 19 January 2017 (issued every 30 minutes, with the page automatically refreshed every 10 minutes)

About weather observations | Map of weather stations | Latest weather observations for NSW | Other Formats
Station Details ID: 065068 Name: PARKES AIRPORT AWS Lat: -33.13 Lon: 148.24 Height: 323.3 m
Data from the previous 72 hours. | See also: Recent months at Parkes Airport
Date/Time
EDT
Temp
°C
App
Temp
°C
Dew
Point
°C
Rel
Hum
%
Delta-T
°C
Wind Press
QNH
hPa
Press
MSL
hPa
Rain since
9am
mm
Dir  Spd
km/h
Gust
km/h
Spd
kts
Gust
kts
19/04:30pm 37.7 35.0 11.6 21 15.9 SW 17 28 9 15 1006.2 1004.3 0.0
19/04:00pm 36.0 32.9 10.2 21 15.3 W 17 30 9 16 1006.6 1004.8 0.0
19/03:30pm 37.6 35.1 12.3 22 15.5 W 17 32 9 17 1007.0 1005.2 0.0
19/03:00pm 36.8 34.1 11.6 22 15.3 W 17 32 9 17 1007.6 1005.7 0.0
19/02:30pm 36.3 34.8 11.9 23 14.8 W 11 28 6 15 1008.2 1006.3 0.0
19/02:00pm 36.0 33.9 13.5 26 14.0 SW 17 30 9 16 1008.7 1006.8 0.0
19/01:30pm 34.7 33.1 14.0 28 12.8 N 15 28 8 15 1009.1 1007.2 0.0
19/01:00pm 33.9 33.4 14.9 32 11.9 NNW 11 24 6 13 1009.6 1007.8 0.0
19/12:30pm 33.6 33.6 15.1 33 11.6 NNW 9 22 5 12 1009.9 1008.1 0.0
19/12:00pm 32.8 32.6 16.6 38 10.4 NW 13 19 7 10 1010.2 1008.4 0.0
19/11:30am 32.2 32.2 17.3 41 9.6 N 13 20 7 11 1010.5 1008.7 0.0
19/11:00am 30.7 30.2 17.0 43 8.8 NE 15 22 8 12 1011.0 1009.1 0.0
19/10:30am 29.9 30.5 17.7 48 7.9 NNE 11 19 6 10 1011.2 1009.3 0.0
19/10:00am 28.7 28.1 17.6 51 7.1 NNE 17 22 9 12 1011.2 1009.3 0.0
19/09:30am 28.1 28.3 17.6 53 6.7 N 13 19 7 10 1011.2 1009.3 0.0
19/09:00am 26.9 26.7 17.7 57 5.9 NE 15 19 8 10 1011.2 1009.3 0.0
19/08:30am 25.7 24.6 17.4 60 5.3 NE 19 24 10 13 1011.4 1009.5 0.0
19/08:00am 24.9 24.6 17.4 63 4.7 NE 15 22 8 12 1011.4 1009.5 0.0
19/07:30am 23.9 24.3 18.1 70 3.7 ENE 13 19 7 10 1011.3 1009.4 0.0
19/07:00am 22.5 22.9 18.1 76 2.8 NE 13 19 7 10 1010.9 1009.0 0.0
19/06:30am 21.5 21.7 18.5 83 1.9 ENE 15 17 8 9 1010.6 1008.8 0.0
19/06:00am 21.1 22.4 18.5 85 1.6 NE 9 13 5 7 1010.6 1008.8 0.0
19/05:30am 20.7 21.6 17.5 82 2.0 NE 9 11 5 6 1010.1 1008.3 0.0
19/05:00am 21.3 23.1 18.7 85 1.7 NNE 7 9 4 5 1010.0 1008.2 0.0
19/04:30am 21.3 22.4 18.1 82 2.0 N 9 13 5 7 1009.9 1008.1 0.0
19/04:00am 21.8 23.0 18.2 80 2.3 N 9 13 5 7 1009.9 1008.1 0.0
19/03:30am 22.6 24.3 18.4 77 2.7 N 7 9 4 5 1010.1 1008.3 0.0
19/03:00am 23.3 24.8 18.0 72 3.4 N 7 11 4 6 1010.1 1008.3 0.0
19/02:30am 24.4 25.4 18.6 70 3.7 NE 11 15 6 8 1010.4 1008.6 0.0
19/02:00am 25.2 24.9 18.2 65 4.5 NNE 17 24 9 13 1010.5 1008.7 0.0
19/01:30am 24.1 23.7 15.1 57 5.5 NE 11 17 6 9 1010.9 1009.0 0.0
19/01:00am 24.1 22.8 11.4 45 7.3 E 9 13 5 7 1010.6 1008.8 0.0
19/12:30am 24.0 22.2 10.7 43 7.5 E 11 15 6 8 1011.0 1009.1 0.0
19/12:00am 24.0 22.9 9.9 41 7.8 S 6 9 3 5 1011.2 1009.3 0.0
 
Date/Time
EDT
Temp
°C
App
Temp
°C
Dew
Point
°C
Rel
Hum
%
Delta-T
°C
Wind Press
QNH
hPa
Press
MSL
hPa
Rain since
9am
mm
Dir  Spd
km/h
Gust
km/h
Spd
kts
Gust
kts
18/11:30pm 25.2 22.9 10.3 39 8.4 SW 13 17 7 9 1011.2 1009.3 0.0
18/11:00pm 25.2 22.4 8.7 35 9.0 WSW 13 17 7 9 1011.0 1009.1 0.0
18/10:30pm 28.9 25.9 9.1 29 11.1 SSE 15 17 8 9 1010.6 1008.8 0.0
18/10:00pm 29.0 25.5 8.7 28 11.4 S 17 19 9 10 1010.4 1008.6 0.0
18/09:30pm 28.8 26.0 8.5 28 11.3 S 13 15 7 8 1010.2 1008.4 0.0
18/09:00pm 31.2 27.4 7.6 23 13.1 S 17 20 9 11 1010.0 1008.2 0.0
18/08:30pm 32.4 28.0 7.3 21 13.9 SSW 20 26 11 14 1009.6 1007.8 0.0
18/08:00pm 34.4 28.9 5.8 17 15.7 SSW 24 32 13 17 1009.1 1007.2 0.0
18/07:30pm 35.9 29.7 4.2 14 17.1 SSW 26 35 14 19 1008.7 1006.8 0.0
18/07:00pm 37.1 29.5 4.1 13 17.9 SSW 33 46 18 25 1008.1 1006.2 0.0
18/06:30pm 37.7 29.2 0.9 10 19.0 SSW 35 43 19 23 1007.4 1005.6 0.0
18/06:00pm 38.8 30.2 0.3 9 19.9 SSW 35 46 19 25 1006.8 1005.0 0.0
18/05:30pm 39.4 29.7 0.7 9 20.1 SSW 41 57 22 31 1006.5 1004.6 0.0
18/05:26pm 39.6 30.1 -0.8 8 20.6 SSW 39 57 21 31 1006.4 1004.5 0.0
18/05:00pm 40.5 30.8 -1.9 7 21.4 SSW 39 54 21 29 1006.2 1004.3 0.0
18/04:53pm 40.3 31.6 -0.3 8 20.9 SSW 35 54 19 29 1006.2 1004.3 0.0
18/04:30pm 41.1 31.8 0.3 8 21.3 SW 39 54 21 29 1006.1 1004.2 0.0
18/04:23pm 40.9 31.5 0.2 8 21.2 SW 39 54 21 29 1006.0 1004.1 0.0
18/04:00pm 41.8 33.4 -1.0 7 22.0 WSW 33 48 18 26 1006.3 1004.4 0.0
18/03:30pm 41.8 34.6 0.8 8 21.6 SW 28 50 15 27 1006.8 1005.0 0.0
18/03:05pm 41.9 35.0 2.6 9 21.3 W 28 50 15 27 1007.0 1005.2 0.0
18/03:00pm 42.4 36.6 4.4 10 21.2 WSW 24 37 13 20 1007.0 1005.2 0.0
18/02:30pm 41.0 33.5 3.4 10 20.5 WSW 32 43 17 23 1007.6 1005.7 0.0
18/02:00pm 41.2 35.3 7.3 13 19.6 W 28 46 15 25 1007.8 1005.9 0.0
18/01:33pm 42.3 37.2 9.2 14 19.7 W 26 46 14 25 1008.1 1006.2 0.0
18/01:30pm 42.4 37.7 9.3 14 19.8 WSW 24 46 13 25 1008.1 1006.2 0.0
18/01:00pm 41.2 38.1 14.5 21 17.1 WNW 24 37 13 20 1008.4 1006.5 0.0
18/12:30pm 39.7 37.6 15.3 23 15.7 WNW 20 32 11 17 1008.7 1006.8 0.0
18/12:00pm 39.0 37.0 15.4 25 15.2 WNW 20 30 11 16 1009.2 1007.3 0.0
18/11:30am 37.9 35.0 15.1 26 14.5 WNW 24 33 13 18 1009.5 1007.7 0.0
18/11:00am 37.0 34.8 16.0 28 13.5 NW 22 33 12 18 1009.9 1008.1 0.0
18/10:30am 35.8 33.2 16.0 30 12.7 NW 24 39 13 21 1010.1 1008.3 0.0
18/10:00am 35.2 32.5 16.5 33 12.1 NNW 26 39 14 21 1010.0 1008.2 0.0
18/09:30am 33.6 29.4 15.6 34 11.4 NNW 32 43 17 23 1010.2 1008.4 0.0
18/09:00am 33.0 29.3 15.9 35 10.9 NNW 30 44 16 24 1010.4 1008.6 2.0
18/08:30am 31.6 27.7 15.5 37 10.1 N 30 39 16 21 1010.0 1008.2 2.0
18/08:00am 30.8 28.2 16.0 40 9.3 N 24 33 13 18 1010.3 1008.5 2.0
18/07:30am 29.4 27.7 16.2 44 8.3 N 20 32 11 17 1009.8 1008.0 2.0
18/07:00am 28.4 26.8 16.0 47 7.8 N 19 30 10 16 1009.7 1007.9 2.0
18/06:30am 27.6 25.8 15.9 49 7.3 N 20 28 11 15 1009.2 1007.3 2.0
18/06:00am 27.7 26.4 15.7 48 7.5 N 17 26 9 14 1008.9 1007.0 2.0
18/05:30am 27.9 26.4 15.2 46 7.8 N 17 24 9 13 1008.7 1006.8 2.0
18/05:00am 27.9 27.1 15.2 46 7.8 N 13 19 7 10 1008.4 1006.5 2.0
18/04:30am 28.6 26.5 14.8 43 8.5 N 19 26 10 14 1008.1 1006.2 2.0
18/04:00am 29.7 27.4 14.7 40 9.3 N 20 28 11 15 1007.9 1006.0 2.0
18/03:30am 30.4 27.3 14.5 38 9.8 N 24 32 13 17 1007.8 1005.9 2.0
18/03:00am 30.7 28.1 14.8 38 9.9 N 22 32 12 17 1008.0 1006.1 2.0
18/02:30am 31.1 28.1 14.7 37 10.2 NNW 24 35 13 19 1008.2 1006.3 2.0
18/02:00am 31.3 27.6 14.9 37 10.2 N 28 35 15 19 1008.2 1006.3 2.0
18/01:30am 31.4 28.5 15.0 37 10.2 N 24 32 13 17 1008.4 1006.5 2.0
18/01:00am 30.6 28.9 15.8 40 9.3 N 19 24 10 13 1008.5 1006.6 2.0
18/12:30am 29.7 28.5 16.1 43 8.6 N 17 22 9 12 1008.9 1007.0 2.0
18/12:00am 28.8 28.2 16.7 48 7.7 NNE 15 17 8 9 1009.1 1007.2 2.0
 
Date/Time
EDT
Temp
°C
App
Temp
°C
Dew
Point
°C
Rel
Hum
%
Delta-T
°C
Wind Press
QNH
hPa
Press
MSL
hPa
Rain since
9am
mm
Dir  Spd
km/h
Gust
km/h
Spd
kts
Gust
kts
17/11:30pm 27.9 27.7 16.8 50 7.0 N 13 15 7 8 1009.3 1007.4 2.0
17/11:00pm 28.2 29.2 17.7 53 6.7 NE 9 11 5 6 1009.4 1007.6 2.0
17/10:30pm 29.0 29.8 17.2 49 7.5 NNE 9 11 5 6 1009.4 1007.6 2.0
17/10:00pm 29.4 30.3 17.6 49 7.6 NE 9 13 5 7 1009.4 1007.6 2.0
17/09:30pm 30.3 31.3 17.7 46 8.1 ENE 9 11 5 6 1009.2 1007.3 2.0
17/09:00pm 31.0 32.1 18.0 45 8.5 ENE 9 11 5 6 1009.1 1007.2 2.0
17/08:30pm 31.3 31.2 16.9 42 9.2 NNE 13 17 7 9 1009.0 1007.1 2.0
17/08:00pm 34.0 32.2 15.9 33 11.5 NW 20 43 11 23 1009.1 1007.2 2.0
17/07:30pm 35.4 34.8 16.7 33 12.1 NNE 15 20 8 11 1008.7 1006.8 2.0
17/07:00pm 35.7 33.9 15.4 29 12.9 NNE 19 26 10 14 1008.8 1006.9 2.0
17/06:30pm 36.4 34.0 15.5 29 13.3 NNE 22 30 12 16 1008.8 1006.9 2.0
17/06:00pm 37.1 35.3 16.1 29 13.6 NNE 20 30 11 16 1008.8 1006.9 2.0
17/05:30pm 38.1 36.2 15.8 26 14.4 NNE 20 28 11 15 1009.0 1007.1 2.0
17/05:00pm 37.6 34.9 16.5 28 13.7 N 26 32 14 17 1009.4 1007.6 2.0
17/04:30pm 36.2 34.0 16.9 32 12.5 NNW 24 37 13 20 1009.6 1007.8 2.0
17/04:00pm 36.1 38.1 18.7 36 11.6 NE 6 9 3 5 1009.9 1008.1 2.0
17/03:30pm 31.9 38.0 25.0 67 4.9 W 2 7 1 4 1010.5 1008.7 1.6
17/03:00pm 30.3 30.6 20.5 55 6.6 WSW 19 56 10 30 1011.0 1009.1 1.4
17/02:54pm 25.4 19.4 14.5 51 6.6 W 39 111 21 60 1011.5 1009.6 1.2
17/02:53pm 25.5 19.4 14.0 49 6.9 WNW 39 111 21 60 1011.7 1009.8 1.0
17/02:50pm 23.9 18.6 12.5 49 6.6 WNW 32 111 17 60 1011.6 1009.7 0.4
17/02:49pm 28.9 25.7 15.4 44 8.4 WNW 26 111 14 60 1010.4 1008.6 0.0
17/02:30pm 37.9 35.8 15.1 26 14.5 NW 20 39 11 21 1010.9 1009.0 0.0
17/02:00pm 38.2 36.6 16.5 28 14.1 NNW 20 30 11 16 1011.3 1009.4 0.0
17/01:30pm 38.6 35.9 15.7 26 14.7 NW 24 35 13 19 1012.1 1010.3 0.0
17/01:00pm 38.0 35.3 15.7 26 14.3 NNW 24 32 13 17 1012.6 1010.8 0.0
17/12:30pm 37.7 35.8 17.7 31 13.2 NNW 24 39 13 21 1013.1 1011.3 0.0
17/12:00pm 38.0 35.8 17.9 30 13.3 NNW 26 37 14 20 1013.5 1011.7 0.0
17/11:30am 36.6 34.0 17.7 32 12.4 N 28 48 15 26 1013.8 1012.0 0.0
17/11:21am 36.8 34.5 18.4 34 12.2 NNW 28 48 15 26 1013.8 1012.0 0.0
17/11:00am 35.9 32.8 17.6 34 12.0 N 30 43 16 23 1014.1 1012.2 0.0
17/10:30am 34.5 31.1 17.7 37 11.0 N 32 41 17 22 1014.4 1012.5 0.0
17/10:00am 33.3 29.8 17.5 39 10.3 NNW 32 43 17 23 1014.6 1012.7 0.0
17/09:30am 32.9 29.3 17.1 39 10.2 N 32 39 17 21 1014.5 1012.6 0.0
17/09:00am 31.8 27.9 16.5 39 9.7 N 32 44 17 24 1014.8 1012.9 0.0
17/08:30am 31.4 28.8 15.8 39 9.8 N 24 37 13 20 1014.8 1012.9 0.0
17/08:00am 30.5 28.4 16.1 41 9.1 N 22 33 12 18 1014.9 1013.1 0.0
17/07:30am 28.9 26.2 14.7 42 8.7 N 22 28 12 15 1014.5 1012.6 0.0
17/07:00am 27.2 24.7 13.5 42 8.2 NNE 19 24 10 13 1014.1 1012.2 0.0
17/06:30am 24.0 22.8 12.9 50 6.5 NE 11 15 6 8 1013.7 1011.9 0.0
17/06:00am 22.2 20.9 11.3 50 6.2 N 9 9 5 5 1013.6 1011.8 0.0
17/05:30am 23.7 24.2 11.7 47 6.9 CALM 0 0 0 0 1013.0 1011.2 0.0
17/05:00am 22.6 21.7 11.4 49 6.3 E 7 9 4 5 1012.8 1011.0 0.0
17/04:30am 20.8 19.8 10.9 53 5.5 N 7 9 4 5 1012.7 1010.9 0.0
17/04:00am 22.9 21.1 11.0 47 6.7 E 11 15 6 8 1012.3 1010.5 0.0
17/03:30am 20.4 19.3 10.8 54 5.3 NE 7 11 4 6 1012.5 1010.7 0.0
17/03:00am 21.4 19.8 10.3 49 6.1 ENE 9 13 5 7 1012.6 1010.8 0.0
17/02:30am 20.2 18.6 10.3 53 5.4 ENE 9 13 5 7 1012.5 1010.7 0.0
17/02:00am 21.1 20.0 10.6 51 5.8 N 7 13 4 7 1012.7 1010.9 0.0
17/01:30am 21.2 19.8 9.4 47 6.4 ENE 7 17 4 9 1012.8 1011.0 0.0
17/01:00am 21.9 19.4 8.4 42 7.2 NE 11 13 6 7 1013.1 1011.3 0.0
17/12:30am 21.8 19.8 8.7 43 7.0 NE 9 13 5 7 1013.3 1011.5 0.0
17/12:00am 23.5 20.7 8.4 38 8.2 ENE 13 17 7 9 1013.4 1011.6 0.0
 
Date/Time
EDT
Temp
°C
App
Temp
°C
Dew
Point
°C
Rel
Hum
%
Delta-T
°C
Wind Press
QNH
hPa
Press
MSL
hPa
Rain since
9am
mm
Dir  Spd
km/h
Gust
km/h
Spd
kts
Gust
kts
16/11:30pm 24.2 21.3 8.2 36 8.6 E 13 17 7 9 1013.5 1011.7 0.0
16/11:00pm 24.0 21.3 8.8 38 8.3 ENE 13 15 7 8 1013.6 1011.8 0.0
16/10:30pm 22.9 20.6 7.4 37 8.2 ENE 9 11 5 6 1013.5 1011.7 0.0
16/10:00pm 25.5 22.4 7.1 31 9.8 E 13 17 7 9 1013.3 1011.5 0.0
16/09:30pm 25.9 25.2 7.0 30 10.1 CALM 0 0 0 0 1013.0 1011.2 0.0
16/09:00pm 28.4 26.4 7.1 26 11.6 SSW 7 11 4 6 1012.7 1010.9 0.0
16/08:30pm 30.7 29.6 5.2 20 13.6 CALM 0 7 0 4 1012.4 1010.6 0.0
16/08:00pm 34.0 32.6 3.7 15 16.0 CALM 0 0 0 0 1012.1 1010.3 0.0
16/07:30pm 35.7 32.9 1.9 12 17.5 NNW 6 9 3 5 1011.9 1010.0 0.0
16/07:00pm 36.2 31.9 1.1 11 18.0 N 13 17 7 9 1011.7 1009.8 0.0
16/06:30pm 36.8 33.4 3.9 13 17.7 N 11 19 6 10 1011.5 1009.6 0.0
16/06:00pm 37.7 34.6 3.4 12 18.4 N 9 15 5 8 1011.3 1009.4 0.0
16/05:30pm 37.6 35.0 3.4 12 18.3 W 6 13 3 7 1011.3 1009.4 0.0

Other Formats:

Comma delimited format used in spreadsheet applications
http://www.bom.gov.au/fwo/IDN60801/IDN60801.95717.axf

JavaScript Object Notation format (JSON) in row-major order
http://www.bom.gov.au/fwo/IDN60801/IDN60801.95717.json